Terminal Aerodrome Forecast
Issued by NWS La Crosse, WI

Home | Current Version | Previous Version | Text Only | Print | Product List | Glossary On
Versions: 1 2 3 4 5 6 7 8 9 10 11 12 13 14 15 16 17 18 19 20 21 22 23 24 25 26 27 28 29 30 31 32 33 34 35 36 37 38 39 40 41 42 43 44 45 46 47 48 49 50
000
FTUS43 KARX 231746
TAFRST
TAF
KRST 231746Z 2318/2418 20008KT 1/4SM -DZ FG OVC002
     FM232200 31008KT 1SM -RA BR OVC004
      TEMPO 2322/2402 P6SM NSW SCT008 BKN060
     FM240200 33018KT 4SM -DZ BR OVC004
     FM240700 32020KT 3SM -SN OVC005
     FM241200 32025G32KT P6SM -SN BKN015=

USA.gov is the U.S. government's official web portal to all federal, state and local government web resources and services.